Time;durP1;ratioP1;P1;durP2;ratioP2;P2;SDS_P1;SDS_P2;PMS_P1;PMS_P2;Temp;Humidity;BMP_temperature;BMP_pressure;BME280_temperature;BME280_humidity;BME280_pressure;Samples;Min_cycle;Max_cycle;Signal;HPM_P1;HPM_P2
2023/03/02 00:02:00;;;;;;;48.05;28.40;;;;;;;3.05;100.00;100683.81;5002766;28;20034;-88
2023/03/02 00:04:36;;;;;;;48.20;27.33;;;;;;;3.14;100.00;100683.16;5027890;28;20041;-88
2023/03/02 00:07:06;;;;;;;51.47;29.02;;;;;;;3.00;100.00;100683.31;5026612;28;20022;-88
2023/03/02 00:09:33;;;;;;;51.50;29.70;;;;;;;2.91;100.00;100683.97;5003069;28;20287;-88
2023/03/02 00:11:59;;;;;;;49.25;28.35;;;;;;;2.92;100.00;100689.09;5027627;28;20042;-91
2023/03/02 00:14:25;;;;;;;46.20;27.45;;;;;;;3.03;100.00;100689.16;4994472;28;20022;-87
2023/03/02 00:16:50;;;;;;;51.28;28.05;;;;;;;2.95;100.00;100690.69;4992946;28;20039;-87
2023/03/02 00:19:16;;;;;;;55.83;30.30;;;;;;;3.12;100.00;100692.91;5010389;28;20047;-88
2023/03/02 00:21:41;;;;;;;54.80;29.48;;;;;;;3.12;100.00;100690.28;4992873;28;20056;-88
2023/03/02 00:24:07;;;;;;;52.55;29.73;;;;;;;3.19;100.00;100688.06;5006312;28;20104;-89
2023/03/02 00:26:33;;;;;;;55.90;29.85;;;;;;;3.26;100.00;100686.66;5016428;28;20042;-90
2023/03/02 00:28:59;;;;;;;56.60;30.90;;;;;;;3.33;100.00;100678.25;4998864;28;20389;-90
2023/03/02 00:31:25;;;;;;;50.90;28.00;;;;;;;3.38;100.00;100689.22;5017077;28;20034;-90
2023/03/02 00:33:53;;;;;;;51.08;28.55;;;;;;;3.37;100.00;100690.19;5017697;28;20048;-90
2023/03/02 00:36:19;;;;;;;52.55;29.33;;;;;;;3.38;100.00;100689.22;4999719;28;20100;-89
2023/03/02 00:38:45;;;;;;;59.25;30.13;;;;;;;3.25;100.00;100685.81;5016612;28;20057;-89
2023/03/02 00:41:13;;;;;;;57.45;31.42;;;;;;;3.49;100.00;100684.03;4999214;28;20699;-89
2023/03/02 00:43:41;;;;;;;52.60;28.85;;;;;;;3.47;100.00;100675.47;5016257;28;20041;-89
2023/03/02 00:46:11;;;;;;;53.17;28.83;;;;;;;3.41;100.00;100670.69;5016624;28;20030;-90
2023/03/02 00:48:37;;;;;;;51.90;28.48;;;;;;;3.36;100.00;100672.78;5000668;28;20038;-87
2023/03/02 00:51:04;;;;;;;53.10;29.50;;;;;;;3.42;100.00;100669.72;5018186;28;20041;-85
2023/03/02 00:53:29;;;;;;;48.42;27.50;;;;;;;3.60;100.00;100681.47;5016987;28;20116;-89
2023/03/02 00:55:55;;;;;;;50.67;28.98;;;;;;;3.52;100.00;100675.94;5016173;28;20030;-89
2023/03/02 00:58:22;;;;;;;55.60;28.88;;;;;;;3.54;100.00;100676.69;4998212;28;20064;-88
2023/03/02 01:00:48;;;;;;;47.15;27.90;;;;;;;3.45;100.00;100663.41;4999002;28;20030;-89
2023/03/02 01:03:14;;;;;;;50.83;28.45;;;;;;;3.35;100.00;100660.63;4998280;28;20045;-87
2023/03/02 01:05:40;;;;;;;47.75;28.77;;;;;;;3.26;100.00;100666.56;4999198;28;20145;-89
2023/03/02 01:08:05;;;;;;;52.40;28.48;;;;;;;3.25;100.00;100659.63;4982039;28;20069;-89
2023/03/02 01:10:33;;;;;;;49.40;29.33;;;;;;;3.32;100.00;100654.78;5015803;28;20042;-89
2023/03/02 01:12:58;;;;;;;48.55;28.00;;;;;;;3.34;100.00;100656.38;4997402;28;20049;-89
2023/03/02 01:15:24;;;;;;;53.80;29.42;;;;;;;3.45;100.00;100655.53;5015558;28;20034;-87
2023/03/02 01:17:50;;;;;;;48.67;28.00;;;;;;;3.44;100.00;100649.50;5015345;28;20033;-91
2023/03/02 01:20:16;;;;;;;48.70;28.58;;;;;;;3.31;100.00;100640.88;5015142;28;20046;-87
2023/03/02 01:22:43;;;;;;;55.00;29.88;;;;;;;3.36;100.00;100643.13;5015307;28;20038;-89
2023/03/02 01:25:10;;;;;;;49.85;28.60;;;;;;;3.29;100.00;100645.38;5015416;28;20056;-87
2023/03/02 01:27:36;;;;;;;50.63;28.88;;;;;;;3.36;100.00;100651.84;5015740;28;20036;-88
2023/03/02 01:30:02;;;;;;;48.20;27.00;;;;;;;3.47;100.00;100648.44;4997925;28;20373;-87
2023/03/02 01:32:30;;;;;;;44.10;26.67;;;;;;;3.45;100.00;100647.69;4997395;28;20535;-89
2023/03/02 01:34:55;;;;;;;43.83;26.60;;;;;;;3.33;100.00;100641.59;5015863;28;20034;-88
2023/03/02 01:37:21;;;;;;;43.05;25.35;;;;;;;3.35;100.00;100639.69;5015599;28;20468;-90
2023/03/02 01:39:48;;;;;;;47.55;27.00;;;;;;;3.33;100.00;100636.34;5015695;28;20030;-89
2023/03/02 01:42:14;;;;;;;47.70;28.00;;;;;;;3.29;100.00;100627.03;5015170;28;20400;-87
2023/03/02 01:44:49;;;;;;;53.28;30.23;;;;;;;3.24;100.00;100639.66;5015437;28;20030;-91
2023/03/02 01:47:17;;;;;;;47.80;28.40;;;;;;;3.26;100.00;100624.66;4997774;28;20100;-89
2023/03/02 01:50:00;;;;;;;50.42;29.67;;;;;;;3.24;100.00;100626.56;4983482;28;20103;-90
2023/03/02 01:52:32;;;;;;;51.97;29.00;;;;;;;3.20;100.00;100619.88;4997852;28;20121;-89
2023/03/02 01:55:02;;;;;;;56.08;30.40;;;;;;;3.16;100.00;100623.66;4997613;28;20476;-88
2023/03/02 01:57:44;;;;;;;55.05;30.55;;;;;;;3.21;100.00;100620.72;4998465;28;20033;-85
2023/03/02 02:00:19;;;;;;;56.00;30.42;;;;;;;3.24;100.00;100621.31;4990054;28;20096;-89
2023/03/02 02:02:45;;;;;;;;;;;;;;;3.21;100.00;100611.06;5016326;28;20103;-88
2023/03/02 02:05:17;;;;;;;51.08;28.65;;;;;;;3.24;100.00;100616.06;5015668;28;20405;-89
2023/03/02 02:07:43;;;;;;;52.38;29.77;;;;;;;3.19;100.00;100607.72;4997963;28;20489;-88
2023/03/02 02:10:10;;;;;;;54.97;30.52;;;;;;;3.31;100.00;100605.97;4997164;28;20040;-89
2023/03/02 02:12:35;;;;;;;54.95;30.38;;;;;;;3.24;100.00;100605.59;5014723;28;20046;-89
2023/03/02 02:15:01;;;;;;;56.08;30.88;;;;;;;3.28;100.00;100622.75;4997562;28;20177;-89
2023/03/02 02:17:28;;;;;;;54.10;30.00;;;;;;;3.26;100.00;100613.34;5014822;28;20050;-89
2023/03/02 02:20:07;;;;;;;52.03;30.55;;;;;;;3.25;100.00;100602.00;4997434;28;20033;-88
2023/03/02 02:22:55;;;;;;;55.50;30.27;;;;;;;3.28;100.00;100617.50;4997347;28;20045;-89
2023/03/02 02:26:04;;;;;;;54.70;29.25;;;;;;;3.33;100.00;100612.78;5014869;28;20250;-88
2023/03/02 02:28:36;;;;;;;51.22;29.63;;;;;;;3.42;100.00;100603.38;4989522;28;20050;-90
2023/03/02 02:31:19;;;;;;;51.53;28.33;;;;;;;3.35;100.00;100603.00;4997046;28;20489;-89
2023/03/02 02:33:50;;;;;;;54.38;29.95;;;;;;;3.35;100.00;100594.31;4997761;28;20124;-89
2023/03/02 02:36:21;;;;;;;57.90;31.60;;;;;;;3.39;100.00;100603.63;5016661;28;20044;-85
2023/03/02 02:38:56;;;;;;;55.13;31.08;;;;;;;3.37;100.00;100603.75;5000195;28;20042;-86
2023/03/02 02:41:28;;;;;;;52.22;29.48;;;;;;;3.35;100.00;100610.03;4999504;28;20172;-88
2023/03/02 02:43:55;;;;;;;53.13;29.23;;;;;;;3.31;100.00;100598.97;5009573;28;20055;-89
2023/03/02 02:46:21;;;;;;;52.78;29.05;;;;;;;3.43;100.00;100605.06;5010931;28;20037;-86
2023/03/02 02:48:48;;;;;;;58.72;31.23;;;;;;;3.43;100.00;100605.91;5030941;28;20042;-88
2023/03/02 02:51:20;;;;;;;52.90;29.95;;;;;;;3.41;100.00;100607.81;5022970;28;20038;-87
2023/03/02 02:53:57;;;;;;;48.60;28.40;;;;;;;3.44;100.00;100604.97;4997973;28;20029;-88
2023/03/02 02:56:28;;;;;;;56.42;30.48;;;;;;;3.46;100.00;100610.06;5015455;28;20033;-89
2023/03/02 02:58:56;;;;;;;53.85;29.15;;;;;;;3.55;100.00;100612.84;4997942;28;20135;-89
2023/03/02 03:01:25;;;;;;;55.58;30.98;;;;;;;3.60;100.00;100602.84;4981117;28;20184;-90
2023/03/02 03:03:55;;;;;;;56.17;29.27;;;;;;;3.61;100.00;100615.00;5015356;28;20546;-90
2023/03/02 03:06:25;;;;;;;54.50;29.85;;;;;;;3.56;100.00;100605.81;4997493;28;20045;-88
2023/03/02 03:09:02;;;;;;;53.33;29.42;;;;;;;3.65;100.00;100605.94;4980993;28;20045;-88
2023/03/02 03:11:42;;;;;;;50.63;27.17;;;;;;;3.62;100.00;100615.81;5002810;28;20045;-87
2023/03/02 03:14:14;;;;;;;51.67;30.90;;;;;;;3.51;100.00;100611.38;5002487;28;20485;-89
2023/03/02 03:16:44;;;;;;;51.17;29.63;;;;;;;3.50;100.00;100606.28;4997154;28;20488;-86
2023/03/02 03:19:26;;;;;;;51.50;28.30;;;;;;;3.65;100.00;100594.63;5014417;28;20065;-89
2023/03/02 03:21:55;;;;;;;53.30;28.92;;;;;;;3.44;100.00;100602.34;4998426;28;20045;-88
2023/03/02 03:24:23;;;;;;;54.00;29.60;;;;;;;3.43;100.00;100594.59;5000799;28;20092;-91
2023/03/02 03:26:49;;;;;;;53.45;30.33;;;;;;;3.45;100.00;100597.91;5000449;28;20042;-87
2023/03/02 03:29:17;;;;;;;55.83;29.77;;;;;;;3.84;100.00;100602.78;5000155;28;20038;-90
2023/03/02 03:31:43;;;;;;;53.22;29.63;;;;;;;3.63;100.00;100597.38;5000645;28;20044;-88
2023/03/02 03:34:11;;;;;;;53.55;30.48;;;;;;;3.56;100.00;100601.41;4984407;28;20086;-89
2023/03/02 03:36:37;;;;;;;53.78;29.42;;;;;;;3.65;100.00;100600.72;5018807;28;20053;-88
2023/03/02 03:39:04;;;;;;;50.97;28.38;;;;;;;3.61;100.00;100599.25;5019954;28;20031;-90
2023/03/02 03:41:31;;;;;;;52.60;28.77;;;;;;;3.54;100.00;100605.94;5000921;28;20070;-89
2023/03/02 03:43:57;;;;;;;58.85;30.50;;;;;;;3.68;100.00;100604.06;5018290;28;20029;-90
2023/03/02 03:46:24;;;;;;;52.45;28.30;;;;;;;3.90;100.00;100609.34;5000686;28;20128;-90
2023/03/02 03:48:51;;;;;;;54.65;29.20;;;;;;;3.95;100.00;100609.81;5000258;28;20440;-90
2023/03/02 03:51:17;;;;;;;52.85;30.13;;;;;;;3.89;100.00;100612.91;5000503;28;20025;-89
2023/03/02 03:53:44;;;;;;;51.25;29.48;;;;;;;3.75;100.00;100610.50;5000583;28;20039;-89
2023/03/02 03:56:10;;;;;;;53.95;30.48;;;;;;;3.70;100.00;100613.47;5018626;28;20057;-90
2023/03/02 03:58:36;;;;;;;53.70;29.58;;;;;;;3.85;100.00;100606.22;5000383;28;20507;-89
2023/03/02 04:01:02;;;;;;;61.40;30.40;;;;;;;3.94;100.00;100613.41;5000104;28;20038;-90
2023/03/02 04:03:28;;;;;;;51.70;29.67;;;;;;;3.74;100.00;100611.47;5000159;28;20045;-90
2023/03/02 04:05:53;;;;;;;51.40;29.23;;;;;;;3.78;100.00;100616.34;5018038;28;20041;-88
2023/03/02 04:08:19;;;;;;;53.83;29.83;;;;;;;3.86;100.00;100611.34;5019776;28;20034;-87
2023/03/02 04:10:45;;;;;;;51.88;29.25;;;;;;;3.71;100.00;100616.94;5001287;28;20025;-90
2023/03/02 04:13:12;;;;;;;53.40;30.23;;;;;;;3.62;100.00;100616.66;5018178;28;20103;-90
2023/03/02 04:15:47;;;;;;;50.95;29.55;;;;;;;3.68;100.00;100619.78;5000183;28;20034;-90
2023/03/02 04:18:16;;;;;;;54.13;29.95;;;;;;;3.95;100.00;100615.03;5017971;28;20079;-90
2023/03/02 04:20:41;;;;;;;49.25;28.38;;;;;;;4.15;100.00;100609.09;4999649;28;20046;-89
2023/03/02 04:23:10;;;;;;;47.30;27.67;;;;;;;4.33;100.00;100604.22;4999724;28;20046;-88
2023/03/02 04:25:36;;;;;;;47.40;27.38;;;;;;;4.21;100.00;100592.88;5000188;28;20446;-90
2023/03/02 04:28:07;;;;;;;44.22;25.88;;;;;;;4.12;100.00;100604.94;5017332;28;20073;-89
2023/03/02 04:30:36;;;;;;;47.55;26.60;;;;;;;3.87;100.00;100604.34;4999646;28;20070;-90
2023/03/02 04:33:03;;;;;;;46.72;26.60;;;;;;;3.73;100.00;100612.41;5016892;28;20080;-88
2023/03/02 04:35:29;;;;;;;45.28;24.95;;;;;;;3.91;100.00;100616.25;4999708;28;20030;-90
2023/03/02 04:37:55;;;;;;;47.53;27.38;;;;;;;4.07;100.00;100616.75;5017577;28;20083;-87
2023/03/02 04:40:20;;;;;;;41.00;24.75;;;;;;;4.29;100.00;100610.66;4999428;28;20124;-88
2023/03/02 04:42:46;;;;;;;48.13;26.77;;;;;;;4.17;100.00;100612.47;4983394;28;20033;-90
2023/03/02 04:45:12;;;;;;;50.17;26.25;;;;;;;4.18;100.00;100614.94;5017191;28;20110;-90
2023/03/02 04:47:38;;;;;;;47.05;25.40;;;;;;;4.23;100.00;100609.34;5017234;28;20048;-87
2023/03/02 04:50:04;;;;;;;53.15;26.60;;;;;;;4.27;100.00;100608.16;5017322;28;20026;-88
2023/03/02 04:52:30;;;;;;;40.17;23.92;;;;;;;4.14;100.00;100617.94;5018021;28;20043;-87
2023/03/02 04:54:55;;;;;;;43.67;24.83;;;;;;;4.11;100.00;100610.28;5017723;28;20143;-89
2023/03/02 04:57:21;;;;;;;42.28;23.70;;;;;;;4.23;100.00;100606.72;5017041;28;20045;-88
2023/03/02 04:59:49;;;;;;;41.03;24.75;;;;;;;4.42;100.00;100617.44;5018459;28;20056;-88
2023/03/02 05:02:17;;;;;;;40.38;23.67;;;;;;;4.28;100.00;100609.81;5017019;28;20030;-90
2023/03/02 05:04:43;;;;;;;39.65;24.30;;;;;;;4.20;100.00;100606.97;5017197;28;20081;-91
2023/03/02 05:07:08;;;;;;;38.70;23.65;;;;;;;4.07;100.00;100611.50;4999423;28;20038;-91
2023/03/02 05:09:34;;;;;;;45.28;24.33;;;;;;;3.95;100.00;100612.44;4999684;28;20042;-90
2023/03/02 05:12:00;;;;;;;43.00;24.48;;;;;;;4.24;100.00;100608.41;5017075;28;20038;-90
2023/03/02 05:14:27;;;;;;;44.63;25.25;;;;;;;4.51;100.00;100616.72;5017530;28;20489;-91
2023/03/02 05:16:53;;;;;;;42.78;24.23;;;;;;;4.49;100.00;100612.56;4999693;28;20022;-89
2023/03/02 05:19:21;;;;;;;45.50;24.23;;;;;;;4.23;100.00;100617.22;5016866;28;20045;-90
2023/03/02 05:21:47;;;;;;;41.47;23.50;;;;;;;4.07;100.00;100611.50;4998944;28;20049;-88
2023/03/02 05:24:13;;;;;;;44.40;24.52;;;;;;;4.15;100.00;100619.59;5016407;28;20030;-89
2023/03/02 05:26:39;;;;;;;46.90;26.20;;;;;;;4.14;100.00;100605.63;5016066;28;20044;-88
2023/03/02 05:29:08;;;;;;;45.35;25.75;;;;;;;4.41;100.00;100610.53;5014674;28;20050;-89
2023/03/02 05:31:39;;;;;;;46.30;26.95;;;;;;;4.23;100.00;100608.50;5022125;28;20181;-90
2023/03/02 05:34:07;;;;;;;46.17;26.63;;;;;;;4.26;100.00;100603.88;5016253;28;20045;-88
2023/03/02 05:36:37;;;;;;;46.28;26.73;;;;;;;4.53;100.00;100601.69;4983244;28;20018;-87
2023/03/02 05:39:06;;;;;;;44.60;25.65;;;;;;;4.44;100.00;100606.84;5016517;28;20489;-91
2023/03/02 05:41:35;;;;;;;48.50;26.77;;;;;;;4.74;100.00;100607.00;5015099;28;20065;-89
2023/03/02 05:44:01;;;;;;;45.03;24.92;;;;;;;4.78;100.00;100602.34;5017018;28;20512;-88
2023/03/02 05:46:27;;;;;;;43.13;25.42;;;;;;;4.88;100.00;100603.28;5014539;28;20034;-89
2023/03/02 05:48:53;;;;;;;43.28;24.77;;;;;;;4.85;100.00;100599.13;5014461;28;20508;-89
2023/03/02 05:51:18;;;;;;;40.10;23.35;;;;;;;4.81;100.00;100602.09;4984409;28;20038;-90
2023/03/02 05:53:46;;;;;;;44.17;25.65;;;;;;;4.56;100.00;100606.72;4978796;28;20070;-87
2023/03/02 05:56:12;;;;;;;45.30;25.20;;;;;;;4.78;100.00;100605.81;4997147;28;20054;-91
2023/03/02 05:58:38;;;;;;;44.45;24.38;;;;;;;4.82;100.00;100611.66;4997859;28;20042;-85
2023/03/02 06:01:08;;;;;;;42.90;24.08;;;;;;;4.81;100.00;100602.94;4999049;28;20041;-89
2023/03/02 06:03:34;;;;;;;41.60;25.00;;;;;;;4.98;100.00;100604.22;4983199;28;20035;-89
2023/03/02 06:06:00;;;;;;;43.47;24.77;;;;;;;5.05;100.00;100611.47;4999086;28;20114;-90
2023/03/02 06:08:25;;;;;;;45.67;25.73;;;;;;;4.84;100.00;100607.13;4999122;28;20034;-87
2023/03/02 06:10:54;;;;;;;52.55;25.65;;;;;;;4.95;100.00;100620.22;4979665;28;20085;-88
2023/03/02 06:13:20;;;;;;;45.03;25.23;;;;;;;4.68;100.00;100618.84;4983666;28;20068;-85
2023/03/02 06:15:48;;;;;;;46.55;26.33;;;;;;;4.64;100.00;100622.66;5018972;23;20042;-86
2023/03/02 06:18:14;;;;;;;47.75;25.95;;;;;;;4.67;100.00;100621.59;5002350;28;20046;-90
2023/03/02 06:20:40;;;;;;;48.03;27.63;;;;;;;4.48;100.00;100632.72;4987454;28;20031;-92
2023/03/02 06:26:22;;;;;;;56.50;29.63;;;;;;;4.45;100.00;100616.38;4967023;23;20058;-91
2023/03/02 06:28:48;;;;;;;55.65;30.00;;;;;;;4.44;100.00;100631.28;4982244;28;20057;-90
2023/03/02 06:31:13;;;;;;;51.75;28.25;;;;;;;4.63;100.00;100626.25;4965199;28;20066;-92
2023/03/02 06:33:39;;;;;;;49.72;27.30;;;;;;;4.67;100.00;100627.66;4950220;28;20401;-93
2023/03/02 06:36:06;;;;;;;49.13;26.67;;;;;;;4.55;100.00;100623.41;4967513;28;20066;-91
2023/03/02 06:38:31;;;;;;;50.53;26.70;;;;;;;4.58;100.00;100638.06;4947269;29;20039;-89
2023/03/02 06:41:00;;;;;;;51.15;27.90;;;;;;;4.48;100.00;100632.72;4960658;29;20063;-89
2023/03/02 06:43:26;;;;;;;49.55;27.70;;;;;;;4.47;100.00;100630.22;4954943;28;20395;-91
2023/03/02 06:45:51;;;;;;;52.83;27.85;;;;;;;4.48;100.00;100637.13;4985976;28;20045;-89
2023/03/02 06:48:17;;;;;;;50.17;27.45;;;;;;;4.48;100.00;100632.72;4984305;28;20026;-90
2023/03/02 06:50:43;;;;;;;48.30;26.95;;;;;;;4.50;100.00;100641.31;4985857;28;20040;-90
2023/03/02 06:53:08;;;;;;;51.67;26.05;;;;;;;4.50;100.00;100636.06;4984887;28;20053;-90
2023/03/02 06:55:35;;;;;;;45.78;25.10;;;;;;;4.51;100.00;100637.72;4983816;28;20031;-87
2023/03/02 06:58:00;;;;;;;46.30;25.50;;;;;;;4.53;100.00;100635.81;4980032;28;20031;-87
2023/03/02 07:00:27;;;;;;;44.33;24.88;;;;;;;4.59;100.00;100639.75;4980479;28;20434;-87
2023/03/02 07:02:54;;;;;;;43.42;24.48;;;;;;;4.64;100.00;100632.31;4975976;28;20057;-91
2023/03/02 07:05:23;;;;;;;47.38;25.75;;;;;;;4.62;100.00;100640.34;4947653;28;20042;-88
2023/03/02 07:07:48;;;;;;;47.60;25.92;;;;;;;4.64;100.00;100625.28;4975433;28;20031;-90
2023/03/02 07:10:14;;;;;;;49.10;25.05;;;;;;;4.66;100.00;100636.53;4976611;28;20034;-89
2023/03/02 07:12:41;;;;;;;48.38;25.25;;;;;;;4.87;100.00;100630.50;4981123;28;20043;-90
2023/03/02 07:15:11;;;;;;;46.90;25.63;;;;;;;4.80;100.00;100631.97;4979791;28;20041;-89
2023/03/02 07:17:37;;;;;;;46.65;24.85;;;;;;;4.79;100.00;100635.53;4966003;28;20019;-90
2023/03/02 07:20:42;;;;;;;45.88;24.35;;;;;;;4.84;100.00;100638.66;4981769;28;20050;-88
2023/03/02 07:23:08;;;;;;;45.05;25.20;;;;;;;4.95;100.00;100635.97;4998131;28;20022;-90
2023/03/02 07:25:35;;;;;;;48.42;26.42;;;;;;;5.09;100.00;100638.31;4994666;28;20098;-89
2023/03/02 07:28:01;;;;;;;47.78;25.67;;;;;;;5.16;100.00;100639.50;4980219;28;20046;-91
2023/03/02 07:30:26;;;;;;;47.80;26.02;;;;;;;5.36;100.00;100645.75;4997797;28;20035;-88
2023/03/02 07:32:52;;;;;;;53.17;27.92;;;;;;;5.53;100.00;100642.56;4997731;28;20082;-91
2023/03/02 07:35:17;;;;;;;52.20;29.27;;;;;;;5.66;100.00;100651.13;4998047;28;20047;-89
2023/03/02 07:37:43;;;;;;;53.88;29.50;;;;;;;5.95;100.00;100649.53;4969693;28;20039;-89
2023/03/02 07:40:10;;;;;;;54.38;31.85;;;;;;;6.32;100.00;100647.25;4977742;28;20545;-89
2023/03/02 07:42:37;;;;;;;58.45;31.85;;;;;;;6.47;100.00;100645.06;4960763;28;20023;-91
2023/03/02 07:45:05;;;;;;;55.20;29.67;;;;;;;6.34;100.00;100653.19;4950847;28;20051;-88
2023/03/02 07:47:32;;;;;;;56.20;31.55;;;;;;;6.25;100.00;100648.72;4970019;28;20039;-89
2023/03/02 07:49:57;;;;;;;58.75;32.75;;;;;;;6.28;100.00;100656.34;4986170;28;20081;-88
2023/03/02 07:52:23;;;;;;;57.88;32.88;;;;;;;6.46;100.00;100654.78;4981369;28;20057;-89
2023/03/02 07:54:49;;;;;;;60.10;33.63;;;;;;;6.70;100.00;100657.91;4978973;28;20042;-90
2023/03/02 07:57:16;;;;;;;60.38;32.30;;;;;;;6.59;100.00;100655.41;4975600;28;20034;-87
2023/03/02 07:59:42;;;;;;;59.10;32.40;;;;;;;6.52;100.00;100651.63;4974646;28;20042;-88
2023/03/02 08:02:15;;;;;;;60.42;32.53;;;;;;;6.49;100.00;100659.78;4974381;28;20047;-90
2023/03/02 08:04:40;;;;;;;54.70;30.02;;;;;;;6.54;100.00;100656.75;4974102;28;20038;-88
2023/03/02 08:07:07;;;;;;;59.03;33.85;;;;;;;6.68;100.00;100672.19;4976053;28;20063;-90
2023/03/02 08:09:32;;;;;;;63.97;34.10;;;;;;;6.62;100.00;100670.94;4960720;28;20034;-89
2023/03/02 08:11:58;;;;;;;60.95;34.65;;;;;;;6.41;100.00;100674.56;4960333;28;20086;-87
2023/03/02 08:14:24;;;;;;;58.50;33.78;;;;;;;6.36;100.00;100674.97;4960583;28;20039;-85
2023/03/02 08:16:52;;;;;;;66.13;36.88;;;;;;;6.23;100.00;100667.28;4977349;28;20039;-86
2023/03/02 08:19:18;;;;;;;65.25;36.03;;;;;;;6.28;100.00;100666.88;4959811;28;20412;-87
2023/03/02 08:21:44;;;;;;;60.58;35.35;;;;;;;6.21;100.00;100666.56;4979071;28;20023;-89
2023/03/02 08:24:10;;;;;;;60.83;33.83;;;;;;;6.34;100.00;100669.00;4979392;28;20149;-90
2023/03/02 08:26:36;;;;;;;59.60;34.17;;;;;;;6.36;100.00;100672.34;4973718;28;20047;-92
2023/03/02 08:29:03;;;;;;;62.13;35.03;;;;;;;6.41;100.00;100672.75;4941784;29;20032;-87
2023/03/02 08:31:28;;;;;;;59.60;35.13;;;;;;;6.29;100.00;100667.72;4964162;28;20042;-89
2023/03/02 08:33:54;;;;;;;61.17;34.70;;;;;;;6.24;100.00;100676.00;4966671;29;20035;-86
2023/03/02 08:36:20;;;;;;;58.78;34.35;;;;;;;6.38;100.00;100665.13;4969085;29;20039;-92
2023/03/02 08:38:47;;;;;;;59.47;32.83;;;;;;;6.48;100.00;100673.06;4955538;29;20039;-90
2023/03/02 08:41:15;;;;;;;59.42;34.83;;;;;;;6.31;100.00;100666.63;4948594;29;20185;-88
2023/03/02 08:43:42;;;;;;;63.78;35.63;;;;;;;6.34;100.00;100663.72;4957761;29;20035;-92
2023/03/02 08:46:10;;;;;;;65.07;34.58;;;;;;;6.36;100.00;100664.44;4945984;29;20043;-92
2023/03/02 08:48:35;;;;;;;59.58;33.53;;;;;;;6.40;100.00;100671.09;4962600;29;20035;-90
2023/03/02 08:51:04;;;;;;;62.28;35.35;;;;;;;6.35;100.00;100672.47;4967043;29;20046;-92
2023/03/02 08:53:33;;;;;;;63.40;35.15;;;;;;;6.36;100.00;100669.72;4966965;29;20035;-91
2023/03/02 08:56:06;;;;;;;60.67;33.90;;;;;;;6.67;100.00;100663.44;4965869;29;20043;-85
2023/03/02 08:58:32;;;;;;;63.75;34.33;;;;;;;6.90;100.00;100665.84;4934503;29;20045;-90
2023/03/02 09:00:57;;;;;;;62.63;33.83;;;;;;;6.85;100.00;100660.16;4965646;29;20054;-85
2023/03/02 09:03:24;;;;;;;60.65;34.55;;;;;;;6.75;100.00;100662.78;4953627;29;20091;-86
2023/03/02 09:05:50;;;;;;;60.55;33.90;;;;;;;6.80;100.00;100667.63;4967673;29;20114;-87
2023/03/02 09:08:15;;;;;;;56.17;33.47;;;;;;;6.78;100.00;100672.22;4941815;29;20126;-91
2023/03/02 09:10:41;;;;;;;56.33;33.85;;;;;;;6.79;100.00;100668.63;4941057;29;20478;-90
2023/03/02 09:13:06;;;;;;;60.80;34.50;;;;;;;6.98;100.00;100666.03;4942471;29;20454;-89
2023/03/02 09:15:32;;;;;;;57.05;33.72;;;;;;;6.89;100.00;100666.84;4943500;29;20035;-89
2023/03/02 09:17:58;;;;;;;60.58;33.15;;;;;;;6.81;100.00;100664.03;4961999;29;20406;-90
2023/03/02 09:20:23;;;;;;;56.80;33.17;;;;;;;6.84;100.00;100669.03;4960548;28;20452;-91
2023/03/02 09:22:52;;;;;;;58.75;33.88;;;;;;;6.82;100.00;100663.91;4943138;29;20047;-93
2023/03/02 09:25:17;;;;;;;59.70;32.97;;;;;;;6.89;100.00;100661.56;4968606;28;20042;-93
2023/03/02 09:27:44;;;;;;;62.15;34.08;;;;;;;7.08;100.00;100672.16;4978450;28;20039;-91
2023/03/02 09:30:11;;;;;;;61.58;35.08;;;;;;;7.00;100.00;100664.06;4979688;28;20039;-91
2023/03/02 09:32:37;;;;;;;57.70;33.83;;;;;;;7.13;100.00;100669.94;4979638;28;20038;-89
2023/03/02 09:35:03;;;;;;;57.42;32.72;;;;;;;7.09;100.00;100674.63;4947357;28;20030;-89
2023/03/02 09:37:31;;;;;;;56.13;33.75;;;;;;;7.03;100.00;100679.63;4979639;28;20030;-90
2023/03/02 09:39:57;;;;;;;62.40;34.00;;;;;;;7.11;100.00;100667.44;4963118;28;20051;-90
2023/03/02 09:42:41;;;;;;;57.40;32.90;;;;;;;7.27;100.00;100669.53;4972403;28;20050;-91
2023/03/02 09:45:13;;;;;;;58.40;33.08;;;;;;;7.17;100.00;100671.31;4957262;28;20471;-89
2023/03/02 09:47:44;;;;;;;59.10;33.53;;;;;;;7.32;100.00;100677.88;4978856;28;20042;-90
2023/03/02 09:50:25;;;;;;;51.35;30.05;;;;;;;7.37;100.00;100678.28;4964330;28;20328;-91
2023/03/02 09:52:57;;;;;;;53.28;30.75;;;;;;;7.75;100.00;100683.59;4978607;28;20101;-92
2023/03/02 09:55:27;;;;;;;55.00;31.25;;;;;;;7.77;100.00;100686.06;4983288;28;20035;-89
2023/03/02 09:57:54;;;;;;;53.85;31.67;;;;;;;7.66;100.00;100684.41;4977287;28;20062;-89
2023/03/02 10:00:34;;;;;;;53.28;31.17;;;;;;;7.60;100.00;100682.31;4958369;28;20050;-88
2023/03/02 10:03:39;;;;;;;53.92;32.55;;;;;;;7.44;100.00;100684.69;4958073;28;20445;-87
2023/03/02 10:06:05;;;;;;;51.58;30.60;;;;;;;7.44;100.00;100679.41;4911183;29;20040;-87
2023/03/02 10:08:35;;;;;;;53.85;31.23;;;;;;;7.50;100.00;100688.56;4913661;29;20546;-87
2023/03/02 10:11:09;;;;;;;56.08;32.55;;;;;;;7.67;100.00;100683.44;4913766;29;20496;-91
2023/03/02 10:14:04;;;;;;;53.97;30.60;;;;;;;7.70;100.00;100685.78;4916862;29;20091;-86
2023/03/02 10:16:36;;;;;;;54.05;31.48;;;;;;;7.73;100.00;100680.22;4877308;29;20044;-90
2023/03/02 10:19:41;;;;;;;57.30;31.23;;;;;;;7.81;100.00;100682.19;4908001;29;20531;-88
2023/03/02 10:22:22;;;;;;;49.92;29.98;;;;;;;7.92;100.00;100673.28;4969942;28;20047;-88
2023/03/02 10:25:16;;;;;;;50.25;28.65;;;;;;;8.03;100.00;100681.84;4985796;28;20051;-89
2023/03/02 10:27:59;;;;;;;54.70;29.98;;;;;;;8.10;100.00;100685.59;4991441;28;20041;-90
2023/03/02 10:30:26;;;;;;;51.10;29.25;;;;;;;8.11;100.00;100676.72;4973071;28;20098;-89
2023/03/02 10:32:55;;;;;;;50.15;29.48;;;;;;;8.14;100.00;100678.22;4976010;28;20043;-90
2023/03/02 10:35:44;;;;;;;50.17;28.65;;;;;;;8.22;100.00;100675.69;4992739;28;20042;-89
2023/03/02 10:41:40;;;;;;;46.00;27.98;;;;;;;8.78;100.00;100668.56;4977593;28;20043;-91
2023/03/02 10:44:40;;;;;;;50.08;28.55;;;;;;;9.21;100.00;100661.78;4971932;28;20114;-91
2023/03/02 10:47:17;;;;;;;45.97;27.42;;;;;;;9.44;100.00;100660.34;4962708;28;20046;-91
2023/03/02 10:49:46;;;;;;;45.20;27.45;;;;;;;9.34;100.00;100649.03;4978384;28;20035;-87
2023/03/02 10:55:43;;;;;;;50.17;26.42;;;;;;;10.10;100.00;100657.22;4987551;28;20073;-91
2023/03/02 11:06:21;;;;;;;40.13;24.75;;;;;;;10.81;100.00;100658.63;4324558;26;20054;-90
2023/03/02 11:12:09;;;;;;;43.88;26.05;;;;;;;10.76;100.00;100654.78;2327276;26;20030;-90
2023/03/02 11:15:27;;;;;;;40.67;25.42;;;;;;;10.78;100.00;100658.94;5040957;23;20057;-90
2023/03/02 11:22:26;;;;;;;40.15;23.70;;;;;;;10.78;100.00;100656.28;5017531;28;20045;-89
2023/03/02 11:24:57;;;;;;;38.75;24.30;;;;;;;10.78;100.00;100653.63;5015390;28;20046;-87
2023/03/02 11:28:11;;;;;;;38.20;22.77;;;;;;;11.12;100.00;100647.44;5011032;28;20090;-90
2023/03/02 11:30:59;;;;;;;38.63;24.15;;;;;;;10.79;100.00;100628.78;4999798;28;20047;-91
2023/03/02 11:33:43;;;;;;;43.03;24.25;;;;;;;10.64;100.00;100640.19;4999467;28;20034;-91
2023/03/02 11:36:46;;;;;;;48.03;23.88;;;;;;;10.24;100.00;100643.47;5015454;28;20050;-90
2023/03/02 11:42:23;;;;;;;42.42;25.73;;;;;;;9.90;100.00;100640.72;4500464;26;20048;-90
2023/03/02 11:45:22;;;;;;;43.28;24.65;;;;;;;9.99;100.00;100641.59;4960001;29;20023;-90
2023/03/02 11:48:48;;;;;;;39.60;24.65;;;;;;;9.74;100.00;100645.91;4949764;29;20051;-92
2023/03/02 11:51:41;;;;;;;42.22;23.13;;;;;;;9.81;100.00;100642.44;4958364;29;20039;-90